createdAt,value
2024-05-09T00:00:31.076Z,15.12
2024-05-09T00:02:27.708Z,15.16
2024-05-09T00:04:27.668Z,15.17
2024-05-09T00:07:02.135Z,15.19
2024-05-09T00:09:02.130Z,15.19
2024-05-09T00:11:02.283Z,15.17
2024-05-09T00:13:02.136Z,15.17
2024-05-09T00:15:02.143Z,15.26
2024-05-09T00:17:02.290Z,15.28
2024-05-09T00:19:02.190Z,15.28
2024-05-09T00:21:56.014Z,15.33
2024-05-09T00:23:56.105Z,15.35
2024-05-09T00:25:56.199Z,15.36
2024-05-09T00:27:56.021Z,15.37
2024-05-09T00:29:56.021Z,15.37
2024-05-09T00:31:56.164Z,15.38
2024-05-09T00:33:56.161Z,15.4
2024-05-09T00:35:56.020Z,15.42
2024-05-09T00:37:48.458Z,15.43
2024-05-09T00:39:48.306Z,15.45
2024-05-09T00:41:48.310Z,15.46
2024-05-09T00:43:48.404Z,15.47
2024-05-09T00:45:48.298Z,15.46
2024-05-09T00:47:48.630Z,15.48
2024-05-09T00:49:48.489Z,15.48
2024-05-09T00:52:56.042Z,15.48
2024-05-09T00:54:56.025Z,15.48
2024-05-09T00:56:56.002Z,15.49
2024-05-09T00:58:56.028Z,15.49
2024-05-09T01:00:56.287Z,15.46
2024-05-09T01:02:56.035Z,15.44
2024-05-09T01:04:56.089Z,15.49
2024-05-09T01:08:03.531Z,15.5
2024-05-09T01:10:05.488Z,15.51
2024-05-09T01:12:03.552Z,15.52
2024-05-09T01:14:03.410Z,15.52
2024-05-09T01:16:03.437Z,15.51
2024-05-09T01:18:03.498Z,15.51
2024-05-09T01:20:05.930Z,15.48
2024-05-09T01:23:19.423Z,15.54
2024-05-09T01:25:19.530Z,15.55
2024-05-09T01:27:19.431Z,15.56
2024-05-09T01:29:19.477Z,15.57
2024-05-09T01:31:19.878Z,15.5
2024-05-09T01:33:19.640Z,15.5
2024-05-09T01:35:19.459Z,15.48
2024-05-09T01:38:25.988Z,15.46
2024-05-09T01:40:32.985Z,15.47
2024-05-09T01:42:25.838Z,15.43
2024-05-09T01:44:25.946Z,15.41
2024-05-09T01:46:25.831Z,15.37
2024-05-09T01:48:25.906Z,15.38
2024-05-09T01:50:33.617Z,15.36
2024-05-09T01:53:34.345Z,15.39
2024-05-09T01:55:34.292Z,15.34
2024-05-09T01:57:34.226Z,15.37
2024-05-09T01:59:34.343Z,15.41
2024-05-09T02:01:54.816Z,15.41
2024-05-09T02:03:34.459Z,15.37
2024-05-09T02:05:34.290Z,15.33
2024-05-09T02:08:09.434Z,15.33
2024-05-09T02:10:13.717Z,15.31
2024-05-09T02:12:09.332Z,15.3
2024-05-09T02:14:09.353Z,15.27
2024-05-09T02:16:09.265Z,15.29
2024-05-09T02:18:09.404Z,15.3
2024-05-09T02:20:13.203Z,15.24
2024-05-09T02:23:37.211Z,15.25
2024-05-09T02:25:37.229Z,15.19
2024-05-09T02:27:37.174Z,15.21
2024-05-09T02:29:37.216Z,15.22
2024-05-09T02:31:37.231Z,15.26
2024-05-09T02:33:37.439Z,15.24
2024-05-09T02:35:37.348Z,15.2
2024-05-09T02:38:10.311Z,15.21
2024-05-09T02:40:14.468Z,15.23
2024-05-09T02:42:10.007Z,15.2
2024-05-09T02:44:10.063Z,15.21
2024-05-09T02:46:09.938Z,15.21
2024-05-09T02:48:10.068Z,15.2
2024-05-09T02:50:10.896Z,15.19
2024-05-09T02:53:59.904Z,15.2
2024-05-09T02:55:59.651Z,15.23
2024-05-09T02:57:59.571Z,15.24
2024-05-09T02:59:59.546Z,15.23
2024-05-09T03:01:59.687Z,15.21
2024-05-09T03:03:59.682Z,15.19
2024-05-09T03:05:59.491Z,15.21
2024-05-09T03:08:38.998Z,15.23
2024-05-09T03:10:39.282Z,15.21
2024-05-09T03:12:39.315Z,15.21
2024-05-09T03:14:39.079Z,15.17
2024-05-09T03:16:38.741Z,15.14
2024-05-09T03:18:38.831Z,15.18
2024-05-09T03:20:39.012Z,15.17
2024-05-09T03:24:19.352Z,15.19
2024-05-09T03:26:19.573Z,15.18
2024-05-09T03:28:19.343Z,15.19
2024-05-09T03:30:25.868Z,15.19
2024-05-09T03:32:19.571Z,15.19
2024-05-09T03:34:19.411Z,15.2
2024-05-09T03:36:19.346Z,15.19
2024-05-09T03:39:10.495Z,15.16
2024-05-09T03:41:10.381Z,15.19
2024-05-09T03:43:10.451Z,15.18
2024-05-09T03:45:10.414Z,15.21
2024-05-09T03:47:10.382Z,15.24
2024-05-09T03:49:10.458Z,15.21
2024-05-09T03:51:10.494Z,15.29
2024-05-09T03:54:25.060Z,15.31
2024-05-09T03:56:25.159Z,15.34
2024-05-09T03:58:25.085Z,15.36
2024-05-09T04:00:26.279Z,15.37
2024-05-09T04:02:25.277Z,15.38
2024-05-09T04:04:25.119Z,15.37
2024-05-09T04:06:25.085Z,15.42
2024-05-09T04:09:36.646Z,15.41
2024-05-09T04:11:36.516Z,15.4
2024-05-09T04:13:36.617Z,15.43
2024-05-09T04:15:36.545Z,15.46
2024-05-09T04:17:36.591Z,15.47
2024-05-09T04:19:36.519Z,15.47
2024-05-09T04:21:36.533Z,15.5
2024-05-09T04:24:53.506Z,15.51
2024-05-09T04:26:53.587Z,15.53
2024-05-09T04:28:53.535Z,15.53
2024-05-09T04:30:53.505Z,15.54
2024-05-09T04:32:53.947Z,15.57
2024-05-09T04:34:53.543Z,15.59
2024-05-09T04:36:53.485Z,15.56
2024-05-09T04:39:39.332Z,15.57
2024-05-09T04:41:39.192Z,15.57
2024-05-09T04:43:39.188Z,15.62
2024-05-09T04:45:39.326Z,15.63
2024-05-09T04:47:39.297Z,15.64
2024-05-09T04:49:39.212Z,15.48
2024-05-09T04:51:39.259Z,15.41
2024-05-09T04:54:33.619Z,15.34
2024-05-09T04:56:28.484Z,15.26
2024-05-09T04:58:28.471Z,15.32
2024-05-09T05:00:32.231Z,15.42
2024-05-09T05:02:28.466Z,15.47
2024-05-09T05:04:28.545Z,15.52
2024-05-09T05:06:28.371Z,15.52
2024-05-09T05:09:34.933Z,15.58
2024-05-09T05:11:34.795Z,15.58
2024-05-09T05:13:36.146Z,15.46
2024-05-09T05:15:34.927Z,15.48
2024-05-09T05:17:35.017Z,15.51
2024-05-09T05:19:34.775Z,15.52
2024-05-09T05:21:34.835Z,15.6
2024-05-09T05:24:57.485Z,15.62
2024-05-09T05:26:57.635Z,15.63
2024-05-09T05:28:57.568Z,15.65
2024-05-09T05:30:57.498Z,15.66
2024-05-09T05:32:57.522Z,15.63
2024-05-09T05:34:57.727Z,15.68
2024-05-09T05:36:57.480Z,15.71
2024-05-09T05:39:59.094Z,15.75
2024-05-09T05:41:58.994Z,15.73
2024-05-09T05:43:59.011Z,15.77
2024-05-09T05:45:59.212Z,15.81
2024-05-09T05:47:59.157Z,15.86
2024-05-09T05:49:58.972Z,15.87
2024-05-09T05:51:59.130Z,15.85
2024-05-09T05:54:54.211Z,15.88
2024-05-09T05:56:54.177Z,15.98
2024-05-09T05:58:54.292Z,15.98
2024-05-09T06:00:54.210Z,16.02
2024-05-09T06:02:54.287Z,16.06
2024-05-09T06:04:54.248Z,16.08
2024-05-09T06:06:54.197Z,16.12
2024-05-09T06:10:14.186Z,16.1
2024-05-09T06:12:09.567Z,16.18
2024-05-09T06:14:09.541Z,16.19
2024-05-09T06:16:09.564Z,16.21
2024-05-09T06:18:10.130Z,16.21
2024-05-09T06:20:16.379Z,16.24
2024-05-09T06:22:09.664Z,16.26
2024-05-09T06:25:49.264Z,16.29
2024-05-09T06:27:49.274Z,16.29
2024-05-09T06:29:49.197Z,16.35
2024-05-09T06:31:49.221Z,16.41
2024-05-09T06:33:49.495Z,16.4
2024-05-09T06:35:49.232Z,16.35
2024-05-09T06:37:49.210Z,16.38
2024-05-09T06:40:12.507Z,16.4
2024-05-09T06:42:11.851Z,16.43
2024-05-09T06:44:11.894Z,16.47
2024-05-09T06:46:11.939Z,16.51
2024-05-09T06:48:12.077Z,16.66
2024-05-09T06:50:16.434Z,16.67
2024-05-09T06:52:11.864Z,16.72
2024-05-09T06:56:03.778Z,16.75
2024-05-09T06:58:03.690Z,16.77
2024-05-09T07:00:03.881Z,16.8
2024-05-09T07:02:03.799Z,16.85
2024-05-09T07:04:03.742Z,16.92
2024-05-09T07:06:03.786Z,16.73
2024-05-09T07:08:03.898Z,16.86
2024-05-09T07:11:12.540Z,16.85
2024-05-09T07:13:12.726Z,16.88
2024-05-09T07:15:12.477Z,16.78
2024-05-09T07:17:12.537Z,16.79
2024-05-09T07:19:12.605Z,16.86
2024-05-09T07:21:12.707Z,16.9
2024-05-09T07:23:12.757Z,16.9
2024-05-09T07:25:27.796Z,16.95
2024-05-09T07:27:27.748Z,16.93
2024-05-09T07:29:27.863Z,16.92
2024-05-09T07:31:27.825Z,17.05
2024-05-09T07:33:27.798Z,17.12
2024-05-09T07:35:27.928Z,17.19
2024-05-09T07:37:27.916Z,17.24
2024-05-09T07:39:27.864Z,17.26
2024-05-09T07:40:50.399Z,17.17
2024-05-09T07:42:50.460Z,17.27
2024-05-09T07:44:50.283Z,17.28
2024-05-09T07:47:20.693Z,17.36
2024-05-09T07:53:27.654Z,17.31
2024-05-09T07:55:43.689Z,17.32
2024-05-09T07:57:43.530Z,17.37
2024-05-09T07:59:43.530Z,17.4
2024-05-09T08:01:43.572Z,17.48
2024-05-09T08:03:43.622Z,17.56
2024-05-09T08:05:43.555Z,17.63
2024-05-09T08:07:43.723Z,17.68
2024-05-09T08:09:43.512Z,17.75
2024-05-09T08:11:26.254Z,17.77
2024-05-09T08:13:26.324Z,17.8
2024-05-09T08:15:26.357Z,17.73
2024-05-09T08:17:26.295Z,17.74
2024-05-09T08:19:26.407Z,17.65
2024-05-09T08:21:26.247Z,17.78
2024-05-09T08:23:26.221Z,17.87
2024-05-09T08:26:46.956Z,17.82
2024-05-09T08:28:46.829Z,17.94
2024-05-09T08:30:46.950Z,18.04
2024-05-09T08:32:46.971Z,18.11
2024-05-09T08:34:46.862Z,18.12
2024-05-09T08:36:46.880Z,18.07
2024-05-09T08:38:46.935Z,18.08
2024-05-09T08:41:36.499Z,18.19
2024-05-09T08:43:38.980Z,18.17
2024-05-09T08:45:36.798Z,18.22
2024-05-09T08:47:36.557Z,18.35
2024-05-09T08:49:37.696Z,18.38
2024-05-09T08:51:36.585Z,18.37
2024-05-09T08:53:36.594Z,18.44
2024-05-09T08:56:36.868Z,18.47
2024-05-09T08:58:36.931Z,18.49
2024-05-09T09:00:37.620Z,18.5
2024-05-09T09:02:36.849Z,18.53
2024-05-09T09:04:36.962Z,18.53
2024-05-09T09:06:36.819Z,18.44
2024-05-09T09:08:36.795Z,18.49
2024-05-09T09:12:16.504Z,18.66
2024-05-09T09:14:16.554Z,18.73
2024-05-09T09:16:16.529Z,18.85
2024-05-09T09:18:16.591Z,18.91
2024-05-09T09:20:19.332Z,18.99
2024-05-09T09:22:16.498Z,19.03
2024-05-09T09:24:16.436Z,19.09
2024-05-09T09:27:26.795Z,19.27
2024-05-09T09:29:26.651Z,19.36
2024-05-09T09:31:26.701Z,19.38
2024-05-09T09:33:26.755Z,19.55
2024-05-09T09:35:26.664Z,19.66
2024-05-09T09:37:26.731Z,19.81
2024-05-09T09:39:26.664Z,19.93
2024-05-09T09:42:10.792Z,20.03
2024-05-09T09:44:10.843Z,20.03
2024-05-09T09:46:12.411Z,20.18
2024-05-09T09:48:10.961Z,20.3
2024-05-09T09:50:12.180Z,20.23
2024-05-09T09:52:11.295Z,20.13
2024-05-09T09:54:10.777Z,20.35
2024-05-09T09:57:12.901Z,20.55
2024-05-09T09:59:12.718Z,20.89
2024-05-09T10:01:12.776Z,21.37
2024-05-09T10:03:12.957Z,21.45
2024-05-09T10:05:12.859Z,21.54
2024-05-09T10:07:12.811Z,21.35
2024-05-09T10:09:12.765Z,21.5
2024-05-09T10:12:11.053Z,22.09
2024-05-09T10:14:10.949Z,22.45
2024-05-09T10:16:11.476Z,22.3
2024-05-09T10:18:11.000Z,22.22
2024-05-09T10:20:14.719Z,21.96
2024-05-09T10:22:11.067Z,22.06
2024-05-09T10:24:10.928Z,21.6
2024-05-09T10:27:59.723Z,22.17
2024-05-09T10:29:59.587Z,22.83
2024-05-09T10:31:59.589Z,23
2024-05-09T10:33:59.928Z,22.51
2024-05-09T10:35:59.600Z,21.8
2024-05-09T10:37:59.584Z,22.07
2024-05-09T10:39:59.746Z,21.86
2024-05-09T10:42:58.169Z,22.1
2024-05-09T10:44:57.999Z,22.43
2024-05-09T10:46:58.121Z,22.06
2024-05-09T10:48:58.105Z,21.9
2024-05-09T10:50:58.007Z,22.01
2024-05-09T10:52:58.154Z,21.42
2024-05-09T10:54:58.030Z,21.62
2024-05-09T10:57:21.454Z,20.89
2024-05-09T10:59:21.613Z,21.18
2024-05-09T11:01:21.465Z,21.34
2024-05-09T11:03:21.485Z,20.59
2024-05-09T11:05:21.809Z,20.49
2024-05-09T11:07:21.553Z,20.17
2024-05-09T11:09:21.467Z,20.74
2024-05-09T11:11:21.498Z,21.46
2024-05-09T11:13:05.257Z,21.79
2024-05-09T11:15:05.254Z,21.93
2024-05-09T11:17:05.405Z,21.98
2024-05-09T11:19:05.305Z,21.73
2024-05-09T11:21:05.249Z,21.23
2024-05-09T11:23:05.339Z,21.53
2024-05-09T11:25:05.287Z,21.96
2024-05-09T11:28:21.165Z,22.56
2024-05-09T11:30:26.310Z,22.96
2024-05-09T11:32:20.934Z,22.99
2024-05-09T11:34:21.017Z,22.26
2024-05-09T11:36:20.895Z,22.42
2024-05-09T11:38:22.274Z,22.72
2024-05-09T11:40:24.872Z,22.95
2024-05-09T11:43:10.901Z,22.54
2024-05-09T11:45:10.938Z,22.57
2024-05-09T11:47:11.153Z,22.81
2024-05-09T11:49:10.977Z,23.01
2024-05-09T11:51:10.941Z,23.06
2024-05-09T11:53:11.014Z,22.18
2024-05-09T11:55:10.988Z,22.87
2024-05-09T11:58:07.769Z,23.22
2024-05-09T12:00:09.567Z,23.01
2024-05-09T12:02:07.792Z,22.66
2024-05-09T12:04:07.787Z,22.46
2024-05-09T12:06:07.875Z,22.51
2024-05-09T12:08:07.689Z,22.03
2024-05-09T12:10:11.647Z,22.07
2024-05-09T12:13:00.908Z,22.31
2024-05-09T12:15:00.786Z,22.57
2024-05-09T12:17:00.822Z,22.55
2024-05-09T12:19:01.356Z,22.03
2024-05-09T12:21:00.841Z,21.93
2024-05-09T12:23:00.806Z,22.36
2024-05-09T12:25:00.987Z,22.46
2024-05-09T12:27:00.777Z,21.61
2024-05-09T12:28:18.060Z,21.93
2024-05-09T12:30:28.044Z,22.33
2024-05-09T12:32:17.946Z,22
2024-05-09T12:34:17.984Z,21.15
2024-05-09T12:36:17.896Z,21.37
2024-05-09T12:38:17.974Z,21.17
2024-05-09T12:40:23.016Z,21.16
2024-05-09T12:43:22.943Z,21.07
2024-05-09T12:45:22.418Z,19.98
2024-05-09T12:47:22.407Z,18.87
2024-05-09T12:49:22.744Z,19.27
2024-05-09T12:51:22.377Z,19.59
2024-05-09T12:53:22.348Z,19.73
2024-05-09T12:55:22.485Z,19.8
2024-05-09T12:59:17.256Z,19.71
2024-05-09T13:01:17.370Z,19.65
2024-05-09T13:03:17.177Z,19.52
2024-05-09T13:05:17.284Z,19.37
2024-05-09T13:07:17.481Z,19.3
2024-05-09T13:09:17.250Z,19.18
2024-05-09T13:11:17.232Z,19.06
2024-05-09T13:14:13.303Z,18.82
2024-05-09T13:16:10.596Z,18.72
2024-05-09T13:18:10.668Z,18.49
2024-05-09T13:20:15.120Z,18.29
2024-05-09T13:22:10.620Z,18.21
2024-05-09T13:24:10.643Z,18.06
2024-05-09T13:26:10.563Z,18.01
2024-05-09T13:29:16.014Z,17.8
2024-05-09T13:31:15.975Z,17.75
2024-05-09T13:33:16.198Z,17.81
2024-05-09T13:35:16.030Z,17.21
2024-05-09T13:37:15.939Z,17.48
2024-05-09T13:39:15.902Z,17.62
2024-05-09T13:41:15.941Z,17.66
2024-05-09T13:44:23.926Z,17.1
2024-05-09T13:46:24.238Z,17.34
2024-05-09T13:48:23.987Z,17.27
2024-05-09T13:50:30.843Z,17.47
2024-05-09T13:52:24.142Z,17.5
2024-05-09T13:54:23.968Z,17.51
2024-05-09T13:56:23.943Z,17.57
2024-05-09T13:59:46.172Z,17.72
2024-05-09T14:01:46.256Z,17.73
2024-05-09T14:03:46.465Z,16.97
2024-05-09T14:05:46.541Z,16.88
2024-05-09T14:07:46.061Z,16.25
2024-05-09T14:09:46.087Z,16.54
2024-05-09T14:11:46.330Z,16.8
2024-05-09T14:13:57.973Z,16.59
2024-05-09T14:15:58.203Z,16.39
2024-05-09T14:17:58.143Z,16.61
2024-05-09T14:19:58.033Z,16.28
2024-05-09T14:21:58.036Z,16.51
2024-05-09T14:23:58.080Z,16.81
2024-05-09T14:25:57.979Z,17.08
2024-05-09T14:27:58.191Z,17.04
2024-05-09T14:29:09.861Z,17.12
2024-05-09T14:31:09.791Z,17.04
2024-05-09T14:33:10.129Z,17.14
2024-05-09T14:35:10.045Z,17.09
2024-05-09T14:37:09.855Z,17.27
2024-05-09T14:39:09.809Z,17.36
2024-05-09T14:41:09.885Z,17.29
2024-05-09T14:43:09.882Z,17.24
2024-05-09T14:44:17.161Z,17.3
2024-05-09T14:46:17.404Z,17.38
2024-05-09T14:48:17.355Z,17.35
2024-05-09T14:50:23.498Z,17.23
2024-05-09T14:52:17.208Z,17.3
2024-05-09T14:54:17.120Z,17.32
2024-05-09T14:56:17.559Z,17.42
2024-05-09T14:58:17.163Z,17.39
2024-05-09T14:59:53.206Z,17.43
2024-05-09T15:01:53.338Z,17.41
2024-05-09T15:03:53.301Z,17.36
2024-05-09T15:05:53.469Z,17.34
2024-05-09T15:07:53.255Z,17.29
2024-05-09T15:09:53.207Z,17.3
2024-05-09T15:11:53.381Z,17.29
2024-05-09T15:14:48.756Z,17.21
2024-05-09T15:16:48.761Z,17.16
2024-05-09T15:18:49.374Z,17.17
2024-05-09T15:20:48.982Z,17.14
2024-05-09T15:22:48.755Z,17.09
2024-05-09T15:24:48.935Z,17.08
2024-05-09T15:26:48.739Z,17
2024-05-09T15:30:35.091Z,16.96
2024-05-09T15:32:35.045Z,16.94
2024-05-09T15:34:34.772Z,16.91
2024-05-09T15:36:34.835Z,16.86
2024-05-09T15:38:34.689Z,16.82
2024-05-09T15:40:37.605Z,16.77
2024-05-09T15:42:34.725Z,16.69
2024-05-09T15:45:38.426Z,16.62
2024-05-09T15:47:38.499Z,16.61
2024-05-09T15:49:38.402Z,16.55
2024-05-09T15:51:38.308Z,16.45
2024-05-09T15:53:38.568Z,16.47
2024-05-09T15:55:38.338Z,16.46
2024-05-09T15:57:38.401Z,16.45
2024-05-09T16:00:09.960Z,16.4
2024-05-09T16:02:07.659Z,16.36
2024-05-09T16:04:07.574Z,16.35
2024-05-09T16:06:07.599Z,16.28
2024-05-09T16:08:07.514Z,16.28
2024-05-09T16:10:09.448Z,16.31
2024-05-09T16:12:07.791Z,16.33
2024-05-09T16:15:30.647Z,16.3
2024-05-09T16:17:30.782Z,16.24
2024-05-09T16:19:30.504Z,16.18
2024-05-09T16:21:30.527Z,16.11
2024-05-09T16:23:30.663Z,16.11
2024-05-09T16:25:30.500Z,16.07
2024-05-09T16:27:30.544Z,16.05
2024-05-09T16:30:54.920Z,16.02
2024-05-09T16:32:54.450Z,16.01
2024-05-09T16:34:54.520Z,16.02
2024-05-09T16:36:54.469Z,16.01
2024-05-09T16:38:54.392Z,15.96
2024-05-09T16:40:54.571Z,15.94
2024-05-09T16:42:54.508Z,15.9
2024-05-09T16:45:54.582Z,15.82
2024-05-09T16:47:54.720Z,15.8
2024-05-09T16:49:54.565Z,15.74
2024-05-09T16:51:54.685Z,15.73
2024-05-09T16:53:54.593Z,15.71
2024-05-09T16:55:54.545Z,15.65
2024-05-09T16:57:54.949Z,15.57
2024-05-09T17:00:39.111Z,15.57
2024-05-09T17:02:35.655Z,15.51
2024-05-09T17:04:36.222Z,15.46
2024-05-09T17:06:35.624Z,15.36
2024-05-09T17:08:35.599Z,15.31
2024-05-09T17:10:36.414Z,15.27
2024-05-09T17:12:35.697Z,15.25
2024-05-09T17:15:58.312Z,15.13
2024-05-09T17:17:58.200Z,15.16
2024-05-09T17:19:58.118Z,15.11
2024-05-09T17:21:58.296Z,14.95
2024-05-09T17:23:58.118Z,14.94
2024-05-09T17:25:58.126Z,14.91
2024-05-09T17:27:58.335Z,14.83
2024-05-09T17:30:46.776Z,14.72
2024-05-09T17:32:46.724Z,14.71
2024-05-09T17:34:46.661Z,14.68
2024-05-09T17:36:46.686Z,14.67
2024-05-09T17:38:46.703Z,14.71
2024-05-09T17:40:46.683Z,14.69
2024-05-09T17:42:46.734Z,14.59
2024-05-09T17:46:13.183Z,14.49
2024-05-09T17:48:13.564Z,14.45
2024-05-09T17:50:17.206Z,14.45
2024-05-09T17:52:13.085Z,14.49
2024-05-09T17:54:13.216Z,14.49
2024-05-09T17:56:13.103Z,14.5
2024-05-09T17:58:13.121Z,14.38
2024-05-09T18:01:28.254Z,14.3
2024-05-09T18:03:28.311Z,14.33
2024-05-09T18:05:28.291Z,14.38
2024-05-09T18:07:28.201Z,14.4
2024-05-09T18:09:28.216Z,14.35
2024-05-09T18:11:28.135Z,14.28
2024-05-09T18:13:28.356Z,14.3
2024-05-09T18:16:40.022Z,14.32
2024-05-09T18:18:40.154Z,14.21
2024-05-09T18:20:42.232Z,14.03
2024-05-09T18:22:40.010Z,14.13
2024-05-09T18:24:40.437Z,14.07
2024-05-09T18:26:40.077Z,14.06
2024-05-09T18:28:39.969Z,14.08
2024-05-09T18:31:21.993Z,14.07
2024-05-09T18:33:22.124Z,13.99
2024-05-09T18:35:21.936Z,14.03
2024-05-09T18:37:22.028Z,14.08
2024-05-09T18:39:21.878Z,14.07
2024-05-09T18:41:21.952Z,14.03
2024-05-09T18:43:24.282Z,13.97
2024-05-09T18:46:46.759Z,13.97
2024-05-09T18:48:47.083Z,13.85
2024-05-09T18:50:46.988Z,13.83
2024-05-09T18:52:46.853Z,13.76
2024-05-09T18:54:46.931Z,13.71
2024-05-09T18:56:46.921Z,13.71
2024-05-09T18:58:46.859Z,13.69
2024-05-09T19:01:52.031Z,13.64
2024-05-09T19:03:51.943Z,13.62
2024-05-09T19:05:51.937Z,13.62
2024-05-09T19:07:51.955Z,13.52
2024-05-09T19:09:51.936Z,13.57
2024-05-09T19:11:52.145Z,13.6
2024-05-09T19:13:51.903Z,13.38
2024-05-09T19:16:34.628Z,13.48
2024-05-09T19:18:34.744Z,13.46
2024-05-09T19:20:35.570Z,13.44
2024-05-09T19:22:34.632Z,13.43
2024-05-09T19:24:34.849Z,13.4
2024-05-09T19:26:34.637Z,13.42
2024-05-09T19:28:34.610Z,13.38
2024-05-09T19:30:38.344Z,13.34
2024-05-09T19:32:00.744Z,13.29
2024-05-09T19:34:00.751Z,13.29
2024-05-09T19:36:00.765Z,13.15
2024-05-09T19:38:00.716Z,13.17
2024-05-09T19:40:00.885Z,13.23
2024-05-09T19:42:00.775Z,13.2
2024-05-09T19:44:00.672Z,13.17
2024-05-09T19:47:07.141Z,13.17
2024-05-09T19:49:07.197Z,13.16
2024-05-09T19:51:07.142Z,12.97
2024-05-09T19:53:07.413Z,12.96
2024-05-09T19:55:07.057Z,13.09
2024-05-09T19:57:06.976Z,13.11
2024-05-09T19:59:07.136Z,13.1
2024-05-09T20:02:41.230Z,13.11
2024-05-09T20:04:41.305Z,13.06
2024-05-09T20:06:41.259Z,12.98
2024-05-09T20:08:41.145Z,13.01
2024-05-09T20:10:41.170Z,12.95
2024-05-09T20:12:41.157Z,12.93
2024-05-09T20:14:41.148Z,12.94
2024-05-09T20:17:17.845Z,12.88
2024-05-09T20:19:18.076Z,12.93
2024-05-09T20:21:17.756Z,13
2024-05-09T20:23:17.798Z,12.93
2024-05-09T20:25:18.076Z,12.83
2024-05-09T20:27:17.739Z,12.93
2024-05-09T20:29:17.748Z,12.97
2024-05-09T20:32:53.935Z,12.84
2024-05-09T20:34:53.557Z,12.89
2024-05-09T20:36:53.542Z,12.87
2024-05-09T20:38:53.601Z,12.85
2024-05-09T20:40:53.625Z,12.78
2024-05-09T20:42:53.687Z,12.82
2024-05-09T20:44:53.551Z,12.91
2024-05-09T20:47:31.397Z,12.91
2024-05-09T20:49:31.702Z,12.8
2024-05-09T20:51:31.324Z,12.7
2024-05-09T20:53:31.343Z,12.69
2024-05-09T20:55:31.539Z,12.74
2024-05-09T20:57:31.384Z,12.74
2024-05-09T20:59:31.460Z,12.78
2024-05-09T21:02:34.635Z,12.65
2024-05-09T21:04:34.751Z,12.61
2024-05-09T21:06:34.482Z,12.59
2024-05-09T21:08:34.462Z,12.59
2024-05-09T21:10:34.768Z,12.56
2024-05-09T21:12:34.510Z,12.61
2024-05-09T21:14:34.469Z,12.54
2024-05-09T21:16:34.645Z,12.51
2024-05-09T21:18:32.147Z,12.45
2024-05-09T21:20:32.745Z,12.4
2024-05-09T21:22:32.226Z,12.4
2024-05-09T21:24:32.053Z,12.27
2024-05-09T21:26:32.037Z,12.3
2024-05-09T21:28:32.343Z,12.36
2024-05-09T21:30:37.927Z,12.46
2024-05-09T21:33:13.420Z,12.41
2024-05-09T21:35:12.700Z,12.26
2024-05-09T21:37:12.759Z,12.22
2024-05-09T21:39:12.552Z,12.28
2024-05-09T21:41:12.580Z,12.29
2024-05-09T21:43:12.665Z,12.25
2024-05-09T21:45:12.720Z,11.77
2024-05-09T21:48:10.545Z,11.94
2024-05-09T21:50:15.506Z,12.07
2024-05-09T21:52:10.612Z,12.12
2024-05-09T21:54:10.544Z,12.1
2024-05-09T21:56:10.629Z,12.06
2024-05-09T21:58:10.672Z,12.06
2024-05-09T22:00:11.355Z,12.18
2024-05-09T22:03:27.150Z,12.08
2024-05-09T22:05:26.939Z,12.06
2024-05-09T22:07:26.898Z,12.04
2024-05-09T22:09:26.962Z,12.14
2024-05-09T22:11:26.886Z,12.08
2024-05-09T22:13:26.887Z,11.97
2024-05-09T22:15:26.956Z,11.93
2024-05-09T22:18:32.470Z,11.96
2024-05-09T22:20:35.863Z,11.99
2024-05-09T22:22:32.385Z,11.99
2024-05-09T22:24:32.521Z,12
2024-05-09T22:26:32.379Z,11.96
2024-05-09T22:28:32.402Z,11.95
2024-05-09T22:30:35.341Z,11.75
2024-05-09T22:34:04.802Z,12.01
2024-05-09T22:36:04.593Z,12.1
2024-05-09T22:38:04.621Z,11.97
2024-05-09T22:40:06.334Z,12.01
2024-05-09T22:42:04.592Z,11.98
2024-05-09T22:44:04.596Z,12.01
2024-05-09T22:46:04.658Z,12.04
2024-05-09T22:48:55.587Z,11.98
2024-05-09T22:50:55.556Z,11.96
2024-05-09T22:52:55.577Z,11.89
2024-05-09T22:54:55.533Z,12
2024-05-09T22:56:55.481Z,12.05
2024-05-09T22:58:55.528Z,12.07
2024-05-09T23:00:55.599Z,11.8
2024-05-09T23:04:24.840Z,11.83
2024-05-09T23:06:24.621Z,11.88
2024-05-09T23:08:24.583Z,11.89
2024-05-09T23:10:28.135Z,11.9
2024-05-09T23:12:24.586Z,11.98
2024-05-09T23:14:24.582Z,12
2024-05-09T23:16:24.729Z,11.98
2024-05-09T23:18:51.801Z,11.97
2024-05-09T23:20:51.579Z,11.86
2024-05-09T23:22:51.654Z,11.87
2024-05-09T23:24:51.560Z,11.87
2024-05-09T23:26:51.582Z,11.91
2024-05-09T23:28:51.643Z,11.82
2024-05-09T23:30:51.573Z,11.84
2024-05-09T23:34:09.030Z,11.96
2024-05-09T23:36:08.663Z,11.93
2024-05-09T23:38:08.903Z,11.85
2024-05-09T23:40:09.607Z,11.88
2024-05-09T23:42:08.648Z,11.84
2024-05-09T23:44:08.636Z,11.8
2024-05-09T23:46:08.671Z,11.82
2024-05-09T23:49:10.382Z,11.89
2024-05-09T23:51:10.236Z,11.85
2024-05-09T23:53:10.806Z,11.8
2024-05-09T23:55:10.309Z,11.81
2024-05-09T23:57:10.277Z,11.81
2024-05-09T23:59:10.320Z,11.85
